sensor_id;sensor_type;location;lat;lon;timestamp;P1;durP1;ratioP1;P2;durP2;ratioP2
73476;SDS011;61713;51.034;13.756;2022-08-19T00:00:14;17.20;;;15.73;;
73476;SDS011;61713;51.034;13.756;2022-08-19T00:02:41;17.05;;;15.55;;
73476;SDS011;61713;51.034;13.756;2022-08-19T00:05:08;18.00;;;16.40;;
73476;SDS011;61713;51.034;13.756;2022-08-19T00:07:35;17.63;;;15.93;;
73476;SDS011;61713;51.034;13.756;2022-08-19T00:10:01;17.50;;;16.00;;
73476;SDS011;61713;51.034;13.756;2022-08-19T00:12:28;18.90;;;17.20;;
73476;SDS011;61713;51.034;13.756;2022-08-19T00:14:54;18.87;;;17.17;;
73476;SDS011;61713;51.034;13.756;2022-08-19T00:17:19;19.60;;;17.80;;
73476;SDS011;61713;51.034;13.756;2022-08-19T00:19:45;20.23;;;18.43;;
73476;SDS011;61713;51.034;13.756;2022-08-19T00:22:11;19.80;;;18.00;;
73476;SDS011;61713;51.034;13.756;2022-08-19T00:24:36;19.97;;;18.27;;
73476;SDS011;61713;51.034;13.756;2022-08-19T00:27:03;20.13;;;18.20;;
73476;SDS011;61713;51.034;13.756;2022-08-19T00:29:29;20.35;;;18.35;;
73476;SDS011;61713;51.034;13.756;2022-08-19T00:31:56;20.02;;;18.15;;
73476;SDS011;61713;51.034;13.756;2022-08-19T00:34:23;19.83;;;18.08;;
73476;SDS011;61713;51.034;13.756;2022-08-19T00:36:51;19.23;;;17.42;;
73476;SDS011;61713;51.034;13.756;2022-08-19T00:39:17;20.43;;;18.53;;
73476;SDS011;61713;51.034;13.756;2022-08-19T00:41:43;19.73;;;17.93;;
73476;SDS011;61713;51.034;13.756;2022-08-19T00:44:13;21.05;;;19.13;;
73476;SDS011;61713;51.034;13.756;2022-08-19T00:46:42;20.10;;;18.20;;
73476;SDS011;61713;51.034;13.756;2022-08-19T00:49:11;21.27;;;19.23;;
73476;SDS011;61713;51.034;13.756;2022-08-19T00:52:00;20.08;;;18.17;;
73476;SDS011;61713;51.034;13.756;2022-08-19T00:54:29;19.83;;;18.13;;
73476;SDS011;61713;51.034;13.756;2022-08-19T00:56:56;19.20;;;17.55;;
73476;SDS011;61713;51.034;13.756;2022-08-19T00:59:22;20.30;;;18.40;;
73476;SDS011;61713;51.034;13.756;2022-08-19T01:01:48;19.75;;;17.88;;
73476;SDS011;61713;51.034;13.756;2022-08-19T01:04:14;20.97;;;19.17;;
73476;SDS011;61713;51.034;13.756;2022-08-19T01:06:39;20.93;;;18.93;;
73476;SDS011;61713;51.034;13.756;2022-08-19T01:09:06;21.60;;;19.70;;
73476;SDS011;61713;51.034;13.756;2022-08-19T01:11:33;22.48;;;20.35;;
73476;SDS011;61713;51.034;13.756;2022-08-19T01:14:00;21.40;;;19.40;;
73476;SDS011;61713;51.034;13.756;2022-08-19T01:16:27;22.58;;;20.58;;
73476;SDS011;61713;51.034;13.756;2022-08-19T01:18:54;21.77;;;19.77;;
73476;SDS011;61713;51.034;13.756;2022-08-19T01:24:10;21.52;;;19.63;;
73476;SDS011;61713;51.034;13.756;2022-08-19T01:26:40;20.77;;;18.83;;
73476;SDS011;61713;51.034;13.756;2022-08-19T01:29:09;22.23;;;20.23;;
73476;SDS011;61713;51.034;13.756;2022-08-19T01:31:35;21.83;;;19.83;;
73476;SDS011;61713;51.034;13.756;2022-08-19T01:34:03;22.55;;;20.40;;
73476;SDS011;61713;51.034;13.756;2022-08-19T01:36:32;22.98;;;20.98;;
73476;SDS011;61713;51.034;13.756;2022-08-19T01:39:00;23.13;;;21.05;;
73476;SDS011;61713;51.034;13.756;2022-08-19T01:41:26;22.88;;;20.83;;
73476;SDS011;61713;51.034;13.756;2022-08-19T01:43:52;23.00;;;20.90;;
73476;SDS011;61713;51.034;13.756;2022-08-19T01:46:18;21.35;;;19.45;;
73476;SDS011;61713;51.034;13.756;2022-08-19T01:48:44;21.83;;;19.88;;
73476;SDS011;61713;51.034;13.756;2022-08-19T01:51:11;22.50;;;20.48;;
73476;SDS011;61713;51.034;13.756;2022-08-19T01:53:38;21.48;;;19.67;;
73476;SDS011;61713;51.034;13.756;2022-08-19T01:56:04;22.10;;;20.20;;
73476;SDS011;61713;51.034;13.756;2022-08-19T01:58:35;22.45;;;20.45;;
73476;SDS011;61713;51.034;13.756;2022-08-19T02:01:05;22.70;;;20.80;;
73476;SDS011;61713;51.034;13.756;2022-08-19T02:03:31;21.55;;;19.65;;
73476;SDS011;61713;51.034;13.756;2022-08-19T02:05:57;22.83;;;20.90;;
73476;SDS011;61713;51.034;13.756;2022-08-19T02:08:28;22.55;;;20.55;;
73476;SDS011;61713;51.034;13.756;2022-08-19T02:10:55;23.58;;;21.58;;
73476;SDS011;61713;51.034;13.756;2022-08-19T02:13:20;23.00;;;21.10;;
73476;SDS011;61713;51.034;13.756;2022-08-19T02:15:47;23.48;;;21.48;;
73476;SDS011;61713;51.034;13.756;2022-08-19T02:18:12;23.17;;;21.13;;
73476;SDS011;61713;51.034;13.756;2022-08-19T02:20:38;23.48;;;21.42;;
73476;SDS011;61713;51.034;13.756;2022-08-19T02:23:06;23.40;;;21.40;;
73476;SDS011;61713;51.034;13.756;2022-08-19T02:25:32;24.00;;;21.90;;
73476;SDS011;61713;51.034;13.756;2022-08-19T02:27:57;23.60;;;21.53;;
73476;SDS011;61713;51.034;13.756;2022-08-19T02:30:23;23.10;;;21.10;;
73476;SDS011;61713;51.034;13.756;2022-08-19T02:32:49;22.48;;;20.55;;
73476;SDS011;61713;51.034;13.756;2022-08-19T02:35:16;22.65;;;20.75;;
73476;SDS011;61713;51.034;13.756;2022-08-19T02:37:42;22.48;;;20.55;;
73476;SDS011;61713;51.034;13.756;2022-08-19T02:40:30;23.13;;;20.83;;
73476;SDS011;61713;51.034;13.756;2022-08-19T02:42:59;22.90;;;21.00;;
73476;SDS011;61713;51.034;13.756;2022-08-19T02:45:32;22.35;;;20.40;;
73476;SDS011;61713;51.034;13.756;2022-08-19T02:47:59;22.85;;;20.80;;
73476;SDS011;61713;51.034;13.756;2022-08-19T02:50:24;23.00;;;21.10;;
73476;SDS011;61713;51.034;13.756;2022-08-19T02:52:50;23.25;;;21.13;;
73476;SDS011;61713;51.034;13.756;2022-08-19T02:55:16;22.45;;;20.55;;
73476;SDS011;61713;51.034;13.756;2022-08-19T02:57:41;23.17;;;20.87;;
73476;SDS011;61713;51.034;13.756;2022-08-19T03:00:07;24.00;;;22.00;;
73476;SDS011;61713;51.034;13.756;2022-08-19T03:02:37;24.10;;;21.90;;
73476;SDS011;61713;51.034;13.756;2022-08-19T03:05:03;23.20;;;21.30;;
73476;SDS011;61713;51.034;13.756;2022-08-19T03:07:29;23.30;;;21.30;;
73476;SDS011;61713;51.034;13.756;2022-08-19T03:09:55;22.80;;;20.90;;
73476;SDS011;61713;51.034;13.756;2022-08-19T03:12:21;23.60;;;21.60;;
73476;SDS011;61713;51.034;13.756;2022-08-19T03:14:46;24.53;;;22.33;;
73476;SDS011;61713;51.034;13.756;2022-08-19T03:17:12;24.53;;;22.27;;
73476;SDS011;61713;51.034;13.756;2022-08-19T03:19:38;23.67;;;21.67;;
73476;SDS011;61713;51.034;13.756;2022-08-19T03:22:03;23.90;;;21.73;;
73476;SDS011;61713;51.034;13.756;2022-08-19T03:24:29;26.27;;;23.97;;
73476;SDS011;61713;51.034;13.756;2022-08-19T03:26:56;24.90;;;22.80;;
73476;SDS011;61713;51.034;13.756;2022-08-19T03:29:23;24.45;;;22.40;;
73476;SDS011;61713;51.034;13.756;2022-08-19T03:31:49;25.55;;;23.25;;
73476;SDS011;61713;51.034;13.756;2022-08-19T03:34:18;25.38;;;22.95;;
73476;SDS011;61713;51.034;13.756;2022-08-19T03:36:46;25.08;;;22.88;;
73476;SDS011;61713;51.034;13.756;2022-08-19T03:39:12;26.02;;;23.63;;
73476;SDS011;61713;51.034;13.756;2022-08-19T03:41:39;24.77;;;22.73;;
73476;SDS011;61713;51.034;13.756;2022-08-19T03:44:06;25.40;;;23.20;;
73476;SDS011;61713;51.034;13.756;2022-08-19T03:46:33;25.33;;;23.13;;
73476;SDS011;61713;51.034;13.756;2022-08-19T03:49:00;25.23;;;23.15;;
73476;SDS011;61713;51.034;13.756;2022-08-19T03:51:34;24.10;;;21.92;;
73476;SDS011;61713;51.034;13.756;2022-08-19T03:54:02;24.73;;;22.63;;
73476;SDS011;61713;51.034;13.756;2022-08-19T03:56:30;24.92;;;22.83;;
73476;SDS011;61713;51.034;13.756;2022-08-19T03:58:56;25.33;;;23.23;;
73476;SDS011;61713;51.034;13.756;2022-08-19T04:01:24;25.90;;;23.70;;
73476;SDS011;61713;51.034;13.756;2022-08-19T04:03:51;24.92;;;22.83;;
73476;SDS011;61713;51.034;13.756;2022-08-19T04:06:22;25.43;;;23.23;;
73476;SDS011;61713;51.034;13.756;2022-08-19T04:08:51;25.35;;;23.17;;
73476;SDS011;61713;51.034;13.756;2022-08-19T04:11:20;25.58;;;23.48;;
73476;SDS011;61713;51.034;13.756;2022-08-19T04:13:48;25.40;;;23.10;;
73476;SDS011;61713;51.034;13.756;2022-08-19T04:16:15;25.02;;;22.90;;
73476;SDS011;61713;51.034;13.756;2022-08-19T04:18:42;25.27;;;23.08;;
73476;SDS011;61713;51.034;13.756;2022-08-19T04:21:08;25.30;;;22.97;;
73476;SDS011;61713;51.034;13.756;2022-08-19T04:23:41;25.02;;;22.92;;
73476;SDS011;61713;51.034;13.756;2022-08-19T04:26:07;26.23;;;23.98;;
73476;SDS011;61713;51.034;13.756;2022-08-19T04:28:36;25.73;;;23.50;;
73476;SDS011;61713;51.034;13.756;2022-08-19T04:31:02;26.42;;;24.13;;
73476;SDS011;61713;51.034;13.756;2022-08-19T04:33:27;26.07;;;23.77;;
73476;SDS011;61713;51.034;13.756;2022-08-19T04:35:53;27.57;;;25.07;;
73476;SDS011;61713;51.034;13.756;2022-08-19T04:38:20;27.53;;;25.10;;
73476;SDS011;61713;51.034;13.756;2022-08-19T04:40:48;27.20;;;24.83;;
73476;SDS011;61713;51.034;13.756;2022-08-19T04:43:34;26.17;;;23.98;;
73476;SDS011;61713;51.034;13.756;2022-08-19T04:46:05;25.33;;;23.02;;
73476;SDS011;61713;51.034;13.756;2022-08-19T04:48:35;26.13;;;23.92;;
73476;SDS011;61713;51.034;13.756;2022-08-19T04:51:05;27.13;;;24.73;;
73476;SDS011;61713;51.034;13.756;2022-08-19T04:53:32;28.52;;;25.88;;
73476;SDS011;61713;51.034;13.756;2022-08-19T04:55:59;27.02;;;24.52;;
73476;SDS011;61713;51.034;13.756;2022-08-19T04:58:28;24.88;;;22.65;;
73476;SDS011;61713;51.034;13.756;2022-08-19T05:00:54;26.20;;;23.80;;
73476;SDS011;61713;51.034;13.756;2022-08-19T05:03:19;24.83;;;22.73;;
73476;SDS011;61713;51.034;13.756;2022-08-19T05:05:46;25.58;;;23.38;;
73476;SDS011;61713;51.034;13.756;2022-08-19T05:08:14;25.08;;;22.88;;
73476;SDS011;61713;51.034;13.756;2022-08-19T05:10:45;24.00;;;21.60;;
73476;SDS011;61713;51.034;13.756;2022-08-19T05:13:12;26.60;;;24.30;;
73476;SDS011;61713;51.034;13.756;2022-08-19T05:15:39;25.48;;;23.27;;
73476;SDS011;61713;51.034;13.756;2022-08-19T05:18:06;25.52;;;23.23;;
73476;SDS011;61713;51.034;13.756;2022-08-19T05:20:50;26.40;;;24.08;;
73476;SDS011;61713;51.034;13.756;2022-08-19T05:23:34;26.57;;;23.97;;
73476;SDS011;61713;51.034;13.756;2022-08-19T05:25:59;27.17;;;24.77;;
73476;SDS011;61713;51.034;13.756;2022-08-19T05:28:26;28.70;;;25.97;;
73476;SDS011;61713;51.034;13.756;2022-08-19T05:30:52;28.10;;;25.40;;
73476;SDS011;61713;51.034;13.756;2022-08-19T05:33:20;27.00;;;24.40;;
73476;SDS011;61713;51.034;13.756;2022-08-19T05:35:46;29.52;;;26.73;;
73476;SDS011;61713;51.034;13.756;2022-08-19T05:38:14;28.08;;;25.40;;
73476;SDS011;61713;51.034;13.756;2022-08-19T05:40:40;28.98;;;26.27;;
73476;SDS011;61713;51.034;13.756;2022-08-19T05:43:07;27.15;;;24.67;;
73476;SDS011;61713;51.034;13.756;2022-08-19T05:45:37;27.23;;;24.83;;
73476;SDS011;61713;51.034;13.756;2022-08-19T05:48:05;26.83;;;24.38;;
73476;SDS011;61713;51.034;13.756;2022-08-19T05:50:30;26.80;;;24.35;;
73476;SDS011;61713;51.034;13.756;2022-08-19T05:52:56;24.63;;;22.43;;
73476;SDS011;61713;51.034;13.756;2022-08-19T05:55:21;24.97;;;22.63;;
73476;SDS011;61713;51.034;13.756;2022-08-19T05:57:47;24.83;;;22.33;;
73476;SDS011;61713;51.034;13.756;2022-08-19T06:00:13;26.27;;;23.67;;
73476;SDS011;61713;51.034;13.756;2022-08-19T06:02:39;24.98;;;22.73;;
73476;SDS011;61713;51.034;13.756;2022-08-19T06:05:05;25.45;;;23.13;;
73476;SDS011;61713;51.034;13.756;2022-08-19T06:07:33;22.95;;;20.85;;
73476;SDS011;61713;51.034;13.756;2022-08-19T06:10:00;22.40;;;20.30;;
73476;SDS011;61713;51.034;13.756;2022-08-19T06:12:25;23.57;;;21.53;;
73476;SDS011;61713;51.034;13.756;2022-08-19T06:14:57;22.50;;;20.50;;
73476;SDS011;61713;51.034;13.756;2022-08-19T06:17:24;19.60;;;17.80;;
73476;SDS011;61713;51.034;13.756;2022-08-19T06:19:50;18.05;;;16.35;;
73476;SDS011;61713;51.034;13.756;2022-08-19T06:22:16;18.60;;;16.90;;
73476;SDS011;61713;51.034;13.756;2022-08-19T06:24:42;17.20;;;15.57;;
73476;SDS011;61713;51.034;13.756;2022-08-19T06:27:07;17.05;;;15.45;;
73476;SDS011;61713;51.034;13.756;2022-08-19T06:29:33;16.97;;;15.57;;
73476;SDS011;61713;51.034;13.756;2022-08-19T06:32:00;16.27;;;14.85;;
73476;SDS011;61713;51.034;13.756;2022-08-19T06:34:28;15.73;;;14.23;;
73476;SDS011;61713;51.034;13.756;2022-08-19T06:36:56;15.70;;;14.30;;
73476;SDS011;61713;51.034;13.756;2022-08-19T06:39:27;15.50;;;14.02;;
73476;SDS011;61713;51.034;13.756;2022-08-19T06:41:56;15.88;;;14.48;;
73476;SDS011;61713;51.034;13.756;2022-08-19T06:44:25;15.93;;;13.60;;
73476;SDS011;61713;51.034;13.756;2022-08-19T06:46:53;15.63;;;14.07;;
73476;SDS011;61713;51.034;13.756;2022-08-19T06:49:19;15.18;;;13.80;;
73476;SDS011;61713;51.034;13.756;2022-08-19T06:51:45;15.32;;;13.85;;
73476;SDS011;61713;51.034;13.756;2022-08-19T06:54:15;15.02;;;13.63;;
73476;SDS011;61713;51.034;13.756;2022-08-19T06:56:42;15.37;;;13.90;;
73476;SDS011;61713;51.034;13.756;2022-08-19T06:59:12;15.45;;;14.02;;
73476;SDS011;61713;51.034;13.756;2022-08-19T07:01:41;15.93;;;14.52;;
73476;SDS011;61713;51.034;13.756;2022-08-19T07:04:09;14.83;;;13.53;;
73476;SDS011;61713;51.034;13.756;2022-08-19T07:06:35;15.70;;;14.20;;
73476;SDS011;61713;51.034;13.756;2022-08-19T07:09:01;16.38;;;14.88;;
73476;SDS011;61713;51.034;13.756;2022-08-19T07:11:31;17.13;;;15.52;;
73476;SDS011;61713;51.034;13.756;2022-08-19T07:13:57;16.58;;;15.07;;
73476;SDS011;61713;51.034;13.756;2022-08-19T07:16:23;17.17;;;15.57;;
73476;SDS011;61713;51.034;13.756;2022-08-19T07:18:49;16.95;;;15.43;;
73476;SDS011;61713;51.034;13.756;2022-08-19T07:21:19;17.05;;;15.45;;
73476;SDS011;61713;51.034;13.756;2022-08-19T07:23:52;19.13;;;17.20;;
73476;SDS011;61713;51.034;13.756;2022-08-19T07:26:23;19.33;;;17.60;;
73476;SDS011;61713;51.034;13.756;2022-08-19T07:28:54;19.10;;;17.27;;
73476;SDS011;61713;51.034;13.756;2022-08-19T07:31:22;19.42;;;17.52;;
73476;SDS011;61713;51.034;13.756;2022-08-19T07:33:49;20.08;;;18.17;;
73476;SDS011;61713;51.034;13.756;2022-08-19T07:36:17;19.77;;;17.98;;
73476;SDS011;61713;51.034;13.756;2022-08-19T07:38:44;21.90;;;19.73;;
73476;SDS011;61713;51.034;13.756;2022-08-19T07:41:13;21.52;;;19.45;;
73476;SDS011;61713;51.034;13.756;2022-08-19T07:43:40;22.02;;;19.67;;
73476;SDS011;61713;51.034;13.756;2022-08-19T07:46:06;23.02;;;20.92;;
73476;SDS011;61713;51.034;13.756;2022-08-19T07:48:32;24.70;;;22.30;;
73476;SDS011;61713;51.034;13.756;2022-08-19T07:50:58;25.90;;;23.30;;
73476;SDS011;61713;51.034;13.756;2022-08-19T07:53:28;24.65;;;22.35;;
73476;SDS011;61713;51.034;13.756;2022-08-19T07:55:55;26.67;;;24.27;;
73476;SDS011;61713;51.034;13.756;2022-08-19T07:58:24;25.30;;;22.92;;
73476;SDS011;61713;51.034;13.756;2022-08-19T08:00:50;25.05;;;22.55;;
73476;SDS011;61713;51.034;13.756;2022-08-19T08:03:17;25.55;;;23.27;;
73476;SDS011;61713;51.034;13.756;2022-08-19T08:05:45;25.70;;;23.20;;
73476;SDS011;61713;51.034;13.756;2022-08-19T08:08:29;23.67;;;21.33;;
73476;SDS011;61713;51.034;13.756;2022-08-19T08:11:10;23.80;;;21.60;;
73476;SDS011;61713;51.034;13.756;2022-08-19T08:13:36;24.17;;;21.90;;
73476;SDS011;61713;51.034;13.756;2022-08-19T08:16:02;24.40;;;22.07;;
73476;SDS011;61713;51.034;13.756;2022-08-19T08:18:28;24.63;;;22.30;;
73476;SDS011;61713;51.034;13.756;2022-08-19T08:20:54;24.23;;;21.92;;
73476;SDS011;61713;51.034;13.756;2022-08-19T08:23:21;22.85;;;20.65;;
73476;SDS011;61713;51.034;13.756;2022-08-19T08:25:47;21.95;;;20.00;;
73476;SDS011;61713;51.034;13.756;2022-08-19T08:28:13;22.73;;;20.63;;
73476;SDS011;61713;51.034;13.756;2022-08-19T08:30:39;23.10;;;21.10;;
73476;SDS011;61713;51.034;13.756;2022-08-19T08:33:07;21.20;;;19.35;;
73476;SDS011;61713;51.034;13.756;2022-08-19T08:35:32;23.63;;;21.60;;
73476;SDS011;61713;51.034;13.756;2022-08-19T08:37:58;25.55;;;23.25;;
73476;SDS011;61713;51.034;13.756;2022-08-19T08:43:37;26.23;;;23.77;;
73476;SDS011;61713;51.034;13.756;2022-08-19T08:45:50;23.85;;;21.65;;
73476;SDS011;61713;51.034;13.756;2022-08-19T08:48:36;23.02;;;20.83;;
73476;SDS011;61713;51.034;13.756;2022-08-19T08:51:12;19.30;;;17.60;;
73476;SDS011;61713;51.034;13.756;2022-08-19T08:53:42;18.40;;;16.90;;
73476;SDS011;61713;51.034;13.756;2022-08-19T08:56:10;15.80;;;14.50;;
73476;SDS011;61713;51.034;13.756;2022-08-19T08:58:57;16.33;;;14.93;;
73476;SDS011;61713;51.034;13.756;2022-08-19T09:01:33;15.25;;;13.90;;
73476;SDS011;61713;51.034;13.756;2022-08-19T09:03:59;13.87;;;12.67;;
73476;SDS011;61713;51.034;13.756;2022-08-19T09:06:31;14.20;;;12.90;;
73476;SDS011;61713;51.034;13.756;2022-08-19T09:12:14;12.98;;;11.88;;
73476;SDS011;61713;51.034;13.756;2022-08-19T09:15:15;12.70;;;11.60;;
73476;SDS011;61713;51.034;13.756;2022-08-19T09:17:36;12.65;;;11.65;;
73476;SDS011;61713;51.034;13.756;2022-08-19T09:22:40;13.68;;;12.48;;
73476;SDS011;61713;51.034;13.756;2022-08-19T09:25:11;12.88;;;11.70;;
73476;SDS011;61713;51.034;13.756;2022-08-19T09:27:39;13.75;;;12.65;;
73476;SDS011;61713;51.034;13.756;2022-08-19T09:30:06;13.98;;;12.57;;
73476;SDS011;61713;51.034;13.756;2022-08-19T09:32:34;15.63;;;14.23;;
73476;SDS011;61713;51.034;13.756;2022-08-19T09:35:03;14.48;;;13.13;;
73476;SDS011;61713;51.034;13.756;2022-08-19T09:37:28;15.70;;;14.30;;
73476;SDS011;61713;51.034;13.756;2022-08-19T09:39:54;15.67;;;14.37;;
73476;SDS011;61713;51.034;13.756;2022-08-19T09:42:20;15.43;;;14.05;;
73476;SDS011;61713;51.034;13.756;2022-08-19T09:44:45;14.60;;;13.30;;
73476;SDS011;61713;51.034;13.756;2022-08-19T09:47:12;16.30;;;14.85;;
73476;SDS011;61713;51.034;13.756;2022-08-19T09:49:38;16.95;;;15.63;;
73476;SDS011;61713;51.034;13.756;2022-08-19T09:52:05;16.53;;;15.10;;
73476;SDS011;61713;51.034;13.756;2022-08-19T09:54:33;17.02;;;15.43;;
73476;SDS011;61713;51.034;13.756;2022-08-19T09:56:59;16.58;;;15.05;;
73476;SDS011;61713;51.034;13.756;2022-08-19T09:59:25;16.15;;;14.70;;
73476;SDS011;61713;51.034;13.756;2022-08-19T10:01:52;16.02;;;14.52;;
73476;SDS011;61713;51.034;13.756;2022-08-19T10:04:17;16.00;;;14.60;;
73476;SDS011;61713;51.034;13.756;2022-08-19T10:06:44;15.82;;;14.43;;
73476;SDS011;61713;51.034;13.756;2022-08-19T10:09:13;15.68;;;14.35;;
73476;SDS011;61713;51.034;13.756;2022-08-19T10:11:40;14.07;;;12.77;;
73476;SDS011;61713;51.034;13.756;2022-08-19T10:14:07;13.40;;;12.30;;
73476;SDS011;61713;51.034;13.756;2022-08-19T10:16:33;13.98;;;12.88;;
73476;SDS011;61713;51.034;13.756;2022-08-19T10:19:00;13.73;;;12.52;;
73476;SDS011;61713;51.034;13.756;2022-08-19T10:21:28;12.27;;;11.18;;
73476;SDS011;61713;51.034;13.756;2022-08-19T10:23:56;11.23;;;10.13;;
73476;SDS011;61713;51.034;13.756;2022-08-19T10:26:24;11.43;;;10.40;;
73476;SDS011;61713;51.034;13.756;2022-08-19T10:28:52;11.30;;;10.10;;
73476;SDS011;61713;51.034;13.756;2022-08-19T10:31:21;10.43;;;9.40;;
73476;SDS011;61713;51.034;13.756;2022-08-19T10:33:52;9.52;;;8.73;;
73476;SDS011;61713;51.034;13.756;2022-08-19T10:36:22;9.38;;;8.57;;
73476;SDS011;61713;51.034;13.756;2022-08-19T10:38:56;9.82;;;9.02;;
73476;SDS011;61713;51.034;13.756;2022-08-19T10:41:24;9.60;;;8.88;;
73476;SDS011;61713;51.034;13.756;2022-08-19T10:43:52;9.35;;;8.55;;
73476;SDS011;61713;51.034;13.756;2022-08-19T10:46:19;10.00;;;9.05;;
73476;SDS011;61713;51.034;13.756;2022-08-19T10:48:47;10.52;;;9.63;;
73476;SDS011;61713;51.034;13.756;2022-08-19T10:51:13;9.05;;;8.23;;
73476;SDS011;61713;51.034;13.756;2022-08-19T10:53:58;8.80;;;8.00;;
73476;SDS011;61713;51.034;13.756;2022-08-19T10:56:24;8.02;;;7.32;;
73476;SDS011;61713;51.034;13.756;2022-08-19T10:59:08;7.90;;;7.30;;
73476;SDS011;61713;51.034;13.756;2022-08-19T11:01:34;7.53;;;6.82;;
73476;SDS011;61713;51.034;13.756;2022-08-19T11:04:01;7.27;;;6.57;;
73476;SDS011;61713;51.034;13.756;2022-08-19T11:06:28;7.13;;;6.53;;
73476;SDS011;61713;51.034;13.756;2022-08-19T11:08:55;6.80;;;6.25;;
73476;SDS011;61713;51.034;13.756;2022-08-19T11:11:21;7.28;;;6.68;;
73476;SDS011;61713;51.034;13.756;2022-08-19T11:13:47;6.63;;;6.13;;
73476;SDS011;61713;51.034;13.756;2022-08-19T11:16:24;7.43;;;6.82;;
73476;SDS011;61713;51.034;13.756;2022-08-19T11:18:52;8.30;;;7.60;;
73476;SDS011;61713;51.034;13.756;2022-08-19T11:21:24;9.65;;;8.85;;
73476;SDS011;61713;51.034;13.756;2022-08-19T11:23:52;9.63;;;8.82;;
73476;SDS011;61713;51.034;13.756;2022-08-19T11:26:20;9.10;;;8.30;;
73476;SDS011;61713;51.034;13.756;2022-08-19T11:28:47;8.63;;;7.93;;
73476;SDS011;61713;51.034;13.756;2022-08-19T11:31:16;11.55;;;10.55;;
73476;SDS011;61713;51.034;13.756;2022-08-19T11:33:43;10.90;;;10.00;;
73476;SDS011;61713;51.034;13.756;2022-08-19T11:36:10;12.68;;;11.57;;
73476;SDS011;61713;51.034;13.756;2022-08-19T11:38:36;11.73;;;10.73;;
73476;SDS011;61713;51.034;13.756;2022-08-19T11:41:04;11.70;;;10.70;;
73476;SDS011;61713;51.034;13.756;2022-08-19T11:43:34;11.90;;;10.90;;
73476;SDS011;61713;51.034;13.756;2022-08-19T11:46:03;12.52;;;11.45;;
73476;SDS011;61713;51.034;13.756;2022-08-19T11:48:31;13.43;;;12.27;;
73476;SDS011;61713;51.034;13.756;2022-08-19T11:50:57;12.73;;;11.73;;
73476;SDS011;61713;51.034;13.756;2022-08-19T11:53:22;12.90;;;11.80;;
73476;SDS011;61713;51.034;13.756;2022-08-19T11:55:48;13.13;;;12.13;;
73476;SDS011;61713;51.034;13.756;2022-08-19T11:58:20;13.70;;;12.60;;
73476;SDS011;61713;51.034;13.756;2022-08-19T12:00:46;12.87;;;11.80;;
73476;SDS011;61713;51.034;13.756;2022-08-19T12:03:12;14.87;;;13.57;;
73476;SDS011;61713;51.034;13.756;2022-08-19T12:05:38;14.40;;;13.20;;
73476;SDS011;61713;51.034;13.756;2022-08-19T12:08:05;15.00;;;13.70;;
73476;SDS011;61713;51.034;13.756;2022-08-19T12:10:31;15.50;;;14.25;;
73476;SDS011;61713;51.034;13.756;2022-08-19T12:12:56;16.05;;;14.75;;
73476;SDS011;61713;51.034;13.756;2022-08-19T12:15:22;15.80;;;14.48;;
73476;SDS011;61713;51.034;13.756;2022-08-19T12:17:47;16.00;;;14.53;;
73476;SDS011;61713;51.034;13.756;2022-08-19T12:20:13;17.60;;;16.00;;
73476;SDS011;61713;51.034;13.756;2022-08-19T12:22:40;18.70;;;17.00;;
73476;SDS011;61713;51.034;13.756;2022-08-19T12:25:08;18.35;;;16.75;;
73476;SDS011;61713;51.034;13.756;2022-08-19T12:27:35;18.23;;;16.73;;
73476;SDS011;61713;51.034;13.756;2022-08-19T12:30:01;18.58;;;16.92;;
73476;SDS011;61713;51.034;13.756;2022-08-19T12:32:27;18.63;;;16.95;;
73476;SDS011;61713;51.034;13.756;2022-08-19T12:34:53;18.53;;;16.93;;
73476;SDS011;61713;51.034;13.756;2022-08-19T12:37:19;18.17;;;16.58;;
73476;SDS011;61713;51.034;13.756;2022-08-19T12:39:45;19.23;;;17.63;;
73476;SDS011;61713;51.034;13.756;2022-08-19T12:42:11;21.95;;;19.95;;
73476;SDS011;61713;51.034;13.756;2022-08-19T12:44:38;21.53;;;19.53;;
73476;SDS011;61713;51.034;13.756;2022-08-19T12:47:04;22.35;;;20.30;;
73476;SDS011;61713;51.034;13.756;2022-08-19T12:49:31;23.23;;;20.95;;
73476;SDS011;61713;51.034;13.756;2022-08-19T12:51:58;22.05;;;19.95;;
73476;SDS011;61713;51.034;13.756;2022-08-19T12:54:25;22.00;;;20.00;;
73476;SDS011;61713;51.034;13.756;2022-08-19T12:56:51;22.00;;;19.90;;
73476;SDS011;61713;51.034;13.756;2022-08-19T12:59:16;20.90;;;19.20;;
73476;SDS011;61713;51.034;13.756;2022-08-19T13:01:44;21.00;;;19.10;;
73476;SDS011;61713;51.034;13.756;2022-08-19T13:04:09;21.02;;;19.08;;
73476;SDS011;61713;51.034;13.756;2022-08-19T13:06:35;20.50;;;18.60;;
73476;SDS011;61713;51.034;13.756;2022-08-19T13:09:01;22.83;;;20.70;;
73476;SDS011;61713;51.034;13.756;2022-08-19T13:11:27;22.10;;;20.13;;
73476;SDS011;61713;51.034;13.756;2022-08-19T13:13:57;21.52;;;19.63;;
73476;SDS011;61713;51.034;13.756;2022-08-19T13:16:23;18.42;;;16.73;;
73476;SDS011;61713;51.034;13.756;2022-08-19T13:18:49;21.02;;;19.23;;
73476;SDS011;61713;51.034;13.756;2022-08-19T13:21:16;21.55;;;19.65;;
73476;SDS011;61713;51.034;13.756;2022-08-19T13:23:44;23.23;;;21.05;;
73476;SDS011;61713;51.034;13.756;2022-08-19T13:26:11;23.23;;;21.20;;
73476;SDS011;61713;51.034;13.756;2022-08-19T13:28:37;23.75;;;21.45;;
73476;SDS011;61713;51.034;13.756;2022-08-19T13:31:23;23.95;;;21.85;;
73476;SDS011;61713;51.034;13.756;2022-08-19T13:34:09;24.35;;;22.13;;
73476;SDS011;61713;51.034;13.756;2022-08-19T13:36:35;26.30;;;23.90;;
73476;SDS011;61713;51.034;13.756;2022-08-19T13:39:01;25.90;;;23.70;;
73476;SDS011;61713;51.034;13.756;2022-08-19T13:41:27;27.35;;;24.75;;
73476;SDS011;61713;51.034;13.756;2022-08-19T13:43:53;26.52;;;24.23;;
73476;SDS011;61713;51.034;13.756;2022-08-19T13:46:19;25.70;;;23.48;;
73476;SDS011;61713;51.034;13.756;2022-08-19T13:48:45;26.45;;;24.08;;
73476;SDS011;61713;51.034;13.756;2022-08-19T13:51:13;26.65;;;24.23;;
73476;SDS011;61713;51.034;13.756;2022-08-19T13:53:40;28.13;;;25.67;;
73476;SDS011;61713;51.034;13.756;2022-08-19T13:56:08;27.95;;;25.45;;
73476;SDS011;61713;51.034;13.756;2022-08-19T13:58:35;30.52;;;27.73;;
73476;SDS011;61713;51.034;13.756;2022-08-19T14:01:02;33.03;;;30.13;;
73476;SDS011;61713;51.034;13.756;2022-08-19T14:03:28;32.65;;;29.38;;
73476;SDS011;61713;51.034;13.756;2022-08-19T14:05:54;32.07;;;29.07;;
73476;SDS011;61713;51.034;13.756;2022-08-19T14:08:20;33.57;;;30.37;;
73476;SDS011;61713;51.034;13.756;2022-08-19T14:10:46;34.78;;;31.48;;
73476;SDS011;61713;51.034;13.756;2022-08-19T14:13:16;34.45;;;31.30;;
73476;SDS011;61713;51.034;13.756;2022-08-19T14:15:43;33.33;;;30.45;;
73476;SDS011;61713;51.034;13.756;2022-08-19T14:18:09;32.67;;;29.73;;
73476;SDS011;61713;51.034;13.756;2022-08-19T14:20:36;34.05;;;30.95;;
73476;SDS011;61713;51.034;13.756;2022-08-19T14:23:02;34.03;;;30.92;;
73476;SDS011;61713;51.034;13.756;2022-08-19T14:25:30;32.83;;;29.83;;